createdAt,value
2018-06-03T00:00:25.441Z,24.63
2018-06-03T00:00:59.965Z,24.92
2018-06-03T00:01:33.527Z,24.12
2018-06-03T00:02:07.597Z,24.05
2018-06-03T00:02:41.147Z,25.05
2018-06-03T00:03:14.767Z,23.80
2018-06-03T00:03:48.331Z,23.52
2018-06-03T00:04:22.545Z,24.15
2018-06-03T00:04:56.684Z,23.50
2018-06-03T00:05:29.919Z,23.67
2018-06-03T00:06:03.535Z,23.75
2018-06-03T00:06:37.202Z,25.03
2018-06-03T00:07:10.775Z,24.72
2018-06-03T00:07:45.699Z,24.12
2018-06-03T00:08:19.236Z,23.87
2018-06-03T00:08:52.791Z,23.47
2018-06-03T00:09:26.332Z,24.15
2018-06-03T00:09:59.966Z,25.95
2018-06-03T00:10:34.367Z,24.50
2018-06-03T00:11:07.975Z,23.98
2018-06-03T00:11:41.539Z,24.75
2018-06-03T00:12:15.145Z,24.57
2018-06-03T00:12:48.720Z,24.72
2018-06-03T00:13:22.892Z,25.62
2018-06-03T00:13:56.528Z,24.45
2018-06-03T00:14:30.020Z,25.13
2018-06-03T00:15:03.560Z,25.05
2018-06-03T00:15:37.144Z,26.27
2018-06-03T00:16:10.671Z,27.73
2018-06-03T00:16:44.416Z,25.52
2018-06-03T00:17:17.972Z,26.45
2018-06-03T00:17:51.195Z,26.87
2018-06-03T00:18:24.781Z,24.98
2018-06-03T00:18:58.905Z,25.82
2018-06-03T00:19:32.455Z,25.15
2018-06-03T00:20:06.004Z,25.45
2018-06-03T00:20:51.419Z,26.03
2018-06-03T00:21:36.154Z,26.00
2018-06-03T00:22:15.431Z,25.85
2018-06-03T00:22:49.775Z,25.35
2018-06-03T00:23:23.564Z,27.60
2018-06-03T00:24:04.701Z,28.27
2018-06-03T00:24:38.288Z,28.67
2018-06-03T00:25:11.801Z,26.97
2018-06-03T00:25:46.009Z,27.73
2018-06-03T00:26:19.573Z,26.87
2018-06-03T00:26:53.680Z,27.32
2018-06-03T00:27:27.820Z,25.85
2018-06-03T00:28:01.421Z,27.93
2018-06-03T00:28:34.980Z,27.90
2018-06-03T00:29:08.583Z,28.35
2018-06-03T00:29:42.115Z,27.02
2018-06-03T00:30:15.798Z,27.17
2018-06-03T00:30:49.427Z,26.75
2018-06-03T00:31:23.071Z,27.02
2018-06-03T00:31:56.632Z,27.45
2018-06-03T00:32:30.351Z,26.77
2018-06-03T00:33:03.944Z,27.15
2018-06-03T00:33:37.644Z,28.55
2018-06-03T00:34:10.881Z,27.98
2018-06-03T00:34:44.415Z,28.35
2018-06-03T00:35:18.530Z,27.58
2018-06-03T00:36:03.408Z,26.45
2018-06-03T00:36:45.928Z,27.27
2018-06-03T00:37:19.502Z,27.73
2018-06-03T00:37:53.643Z,27.07
2018-06-03T00:38:27.216Z,28.23
2018-06-03T00:39:01.537Z,28.10
2018-06-03T00:39:35.112Z,28.12
2018-06-03T00:40:08.649Z,27.80
2018-06-03T00:40:42.232Z,28.60
2018-06-03T00:41:15.889Z,28.20
2018-06-03T00:41:49.485Z,28.12
2018-06-03T00:42:23.756Z,27.50
2018-06-03T00:42:59.384Z,28.35
2018-06-03T00:43:32.963Z,29.98
2018-06-03T00:44:06.508Z,32.20
2018-06-03T00:44:40.672Z,30.50
2018-06-03T00:45:14.277Z,32.40
2018-06-03T00:45:48.436Z,31.00
2018-06-03T00:46:22.015Z,31.97
2018-06-03T00:46:55.612Z,30.92
2018-06-03T00:47:29.297Z,30.65
2018-06-03T00:48:02.843Z,31.37
2018-06-03T00:48:36.394Z,30.33
2018-06-03T00:49:10.420Z,29.45
2018-06-03T00:49:44.078Z,29.85
2018-06-03T00:50:17.632Z,30.77
2018-06-03T00:50:52.412Z,29.42
2018-06-03T00:51:26.370Z,29.72
2018-06-03T00:52:00.554Z,29.92
2018-06-03T00:52:35.508Z,28.27
2018-06-03T00:53:09.061Z,30.32
2018-06-03T00:53:42.898Z,30.52
2018-06-03T00:54:16.463Z,29.00
2018-06-03T00:54:51.345Z,29.32
2018-06-03T00:55:25.150Z,29.90
2018-06-03T00:55:58.704Z,30.27
2018-06-03T00:56:43.279Z,29.43
2018-06-03T00:57:16.781Z,29.50
2018-06-03T00:57:50.817Z,29.60
2018-06-03T00:58:24.407Z,29.57
2018-06-03T00:58:57.992Z,29.25
2018-06-03T00:59:32.515Z,30.52
2018-06-03T01:00:06.904Z,29.32
2018-06-03T01:00:40.487Z,27.87
2018-06-03T01:01:14.843Z,29.45
2018-06-03T01:01:48.335Z,28.62
2018-06-03T01:02:21.936Z,29.95
2018-06-03T01:02:55.503Z,28.30
2018-06-03T01:03:29.036Z,28.25
2018-06-03T01:04:02.642Z,29.45
2018-06-03T01:04:37.076Z,28.17
2018-06-03T01:05:11.221Z,28.87
2018-06-03T01:05:44.751Z,29.35
2018-06-03T01:06:19.542Z,29.72
2018-06-03T01:06:53.165Z,29.95
2018-06-03T01:07:27.273Z,30.60
2018-06-03T01:08:00.880Z,30.30
2018-06-03T01:08:34.465Z,30.30
2018-06-03T01:09:07.992Z,29.92
2018-06-03T01:09:42.254Z,30.55
2018-06-03T01:10:16.551Z,29.77
2018-06-03T01:10:50.141Z,29.67
2018-06-03T01:11:23.687Z,28.87
2018-06-03T01:11:57.216Z,28.40
2018-06-03T01:12:30.766Z,29.03
2018-06-03T01:13:04.334Z,29.00
2018-06-03T01:13:37.878Z,30.00
2018-06-03T01:14:12.039Z,30.90
2018-06-03T01:14:45.672Z,30.60
2018-06-03T01:15:19.317Z,30.68
2018-06-03T01:15:52.875Z,30.85
2018-06-03T01:16:26.393Z,31.15
2018-06-03T01:16:59.967Z,31.73
2018-06-03T01:17:33.202Z,31.25
2018-06-03T01:18:06.824Z,31.00
2018-06-03T01:18:40.423Z,30.97
2018-06-03T01:19:13.664Z,29.72
2018-06-03T01:19:47.260Z,30.68
2018-06-03T01:20:21.785Z,29.98
2018-06-03T01:20:55.377Z,30.27
2018-06-03T01:21:29.489Z,31.12
2018-06-03T01:22:03.037Z,29.07
2018-06-03T01:22:36.660Z,30.12
2018-06-03T01:23:09.899Z,31.05
2018-06-03T01:23:43.492Z,32.03
2018-06-03T01:24:17.418Z,31.23
2018-06-03T01:24:50.661Z,31.77
2018-06-03T01:25:24.229Z,31.33
2018-06-03T01:25:57.792Z,29.87
2018-06-03T01:26:32.084Z,29.65
2018-06-03T01:27:05.703Z,29.50
2018-06-03T01:27:39.799Z,29.52
2018-06-03T01:28:13.353Z,30.77
2018-06-03T01:28:46.904Z,31.27
2018-06-03T01:29:21.155Z,31.07
2018-06-03T01:29:55.331Z,29.57
2018-06-03T01:30:28.903Z,30.60
2018-06-03T01:31:02.521Z,31.52
2018-06-03T01:31:36.606Z,31.85
2018-06-03T01:32:10.213Z,32.30
2018-06-03T01:32:43.832Z,33.90
2018-06-03T01:33:17.521Z,33.48
2018-06-03T01:33:51.744Z,33.88
2018-06-03T01:34:25.264Z,33.45
2018-06-03T01:34:58.855Z,34.20
2018-06-03T01:35:32.427Z,33.98
2018-06-03T01:36:06.150Z,33.23
2018-06-03T01:36:39.386Z,33.00
2018-06-03T01:37:12.991Z,31.23
2018-06-03T01:37:47.267Z,30.12
2018-06-03T01:38:21.567Z,31.00
2018-06-03T01:38:55.091Z,30.90
2018-06-03T01:39:28.652Z,32.90
2018-06-03T01:40:02.241Z,33.20
2018-06-03T01:40:35.816Z,32.40
2018-06-03T01:41:09.385Z,33.30
2018-06-03T01:41:44.173Z,32.40
2018-06-03T01:42:17.728Z,34.30
2018-06-03T01:42:51.340Z,33.83
2018-06-03T01:43:24.564Z,32.88
2018-06-03T01:43:58.121Z,33.85
2018-06-03T01:44:31.671Z,33.18
2018-06-03T01:45:05.278Z,32.63
2018-06-03T01:45:38.544Z,32.53
2018-06-03T01:46:12.115Z,32.35
2018-06-03T01:46:45.636Z,32.65
2018-06-03T01:47:19.789Z,31.97
2018-06-03T01:47:53.345Z,33.02
2018-06-03T01:48:27.213Z,32.90
2018-06-03T01:49:00.841Z,32.03
2018-06-03T01:49:34.380Z,32.10
2018-06-03T01:50:07.973Z,32.83
2018-06-03T01:50:41.562Z,32.48
2018-06-03T01:51:15.107Z,31.52
2018-06-03T01:51:48.711Z,31.82
2018-06-03T01:52:22.285Z,31.73
2018-06-03T01:52:56.715Z,32.15
2018-06-03T01:53:31.053Z,33.28
2018-06-03T01:54:05.007Z,33.28
2018-06-03T01:54:38.588Z,33.92
2018-06-03T01:55:12.639Z,32.75
2018-06-03T01:55:45.859Z,32.88
2018-06-03T01:56:19.391Z,33.63
2018-06-03T01:56:53.520Z,32.33
2018-06-03T01:57:27.099Z,33.25
2018-06-03T01:58:00.602Z,32.70
2018-06-03T01:58:34.182Z,32.27
2018-06-03T01:59:07.751Z,32.30
2018-06-03T01:59:41.490Z,32.30
2018-06-03T02:00:15.027Z,32.55
2018-06-03T02:00:48.601Z,34.05
2018-06-03T02:01:22.148Z,33.20
2018-06-03T02:01:56.381Z,32.35
2018-06-03T02:02:29.908Z,32.30
2018-06-03T02:03:03.430Z,32.90
2018-06-03T02:03:37.065Z,32.73
2018-06-03T02:04:10.286Z,32.83
2018-06-03T02:04:44.591Z,32.80
2018-06-03T02:05:18.131Z,31.65
2018-06-03T02:05:51.664Z,31.17
2018-06-03T02:06:26.230Z,31.77
2018-06-03T02:06:59.915Z,32.33
2018-06-03T02:07:33.465Z,32.35
2018-06-03T02:08:07.045Z,30.92
2018-06-03T02:08:40.637Z,30.70
2018-06-03T02:09:14.232Z,31.27
2018-06-03T02:09:47.915Z,30.95
2018-06-03T02:10:22.163Z,30.85
2018-06-03T02:10:55.750Z,29.57
2018-06-03T02:11:29.327Z,29.98
2018-06-03T02:12:02.925Z,29.42
2018-06-03T02:12:36.529Z,30.00
2018-06-03T02:13:10.811Z,28.80
2018-06-03T02:13:44.367Z,27.42
2018-06-03T02:14:17.927Z,27.35
2018-06-03T02:14:51.532Z,27.27
2018-06-03T02:15:25.869Z,26.85
2018-06-03T02:16:00.220Z,26.62
2018-06-03T02:16:33.831Z,28.12
2018-06-03T02:17:07.449Z,26.75
2018-06-03T02:17:41.049Z,26.57
2018-06-03T02:18:14.569Z,26.25
2018-06-03T02:18:48.159Z,26.77
2018-06-03T02:19:21.781Z,25.75
2018-06-03T02:19:55.283Z,26.57
2018-06-03T02:20:28.953Z,25.70
2018-06-03T02:21:03.301Z,25.00
2018-06-03T02:21:36.892Z,25.23
2018-06-03T02:22:10.485Z,25.17
2018-06-03T02:22:44.780Z,25.85
2018-06-03T02:23:18.026Z,26.17
2018-06-03T02:23:51.557Z,26.05
2018-06-03T02:24:25.095Z,25.00
2018-06-03T02:24:58.713Z,24.77
2018-06-03T02:25:31.951Z,25.48
2018-06-03T02:26:05.528Z,26.25
2018-06-03T02:26:39.068Z,26.47
2018-06-03T02:27:12.636Z,27.93
2018-06-03T02:27:46.202Z,27.52
2018-06-03T02:28:19.753Z,25.27
2018-06-03T02:28:53.761Z,25.00
2018-06-03T02:29:27.316Z,25.17
2018-06-03T02:30:00.853Z,26.57
2018-06-03T02:30:34.916Z,27.03
2018-06-03T02:31:08.939Z,26.87
2018-06-03T02:31:42.544Z,26.15
2018-06-03T02:32:16.145Z,26.00
2018-06-03T02:32:50.253Z,26.50
2018-06-03T02:33:23.869Z,26.97
2018-06-03T02:33:58.039Z,26.12
2018-06-03T02:34:31.852Z,25.88
2018-06-03T02:35:05.552Z,27.07
2018-06-03T02:35:39.101Z,26.10
2018-06-03T02:36:13.326Z,27.17
2018-06-03T02:36:46.921Z,28.00
2018-06-03T02:37:20.492Z,26.15
2018-06-03T02:37:54.151Z,26.35
2018-06-03T02:38:27.689Z,26.13
2018-06-03T02:39:01.201Z,26.07
2018-06-03T02:39:34.769Z,25.62
2018-06-03T02:40:08.364Z,26.42
2018-06-03T02:40:41.967Z,26.65
2018-06-03T02:41:15.596Z,25.30
2018-06-03T02:41:49.877Z,26.40
2018-06-03T02:42:23.491Z,27.00
2018-06-03T02:42:57.008Z,26.60
2018-06-03T02:43:30.690Z,27.30
2018-06-03T02:44:04.861Z,25.88
2018-06-03T02:44:38.408Z,25.40
2018-06-03T02:45:12.048Z,26.65
2018-06-03T02:45:46.146Z,27.55
2018-06-03T02:46:19.724Z,26.85
2018-06-03T02:46:53.942Z,28.05
2018-06-03T02:47:28.196Z,25.57
2018-06-03T02:48:01.700Z,26.48
2018-06-03T02:48:35.594Z,26.53
2018-06-03T02:49:09.184Z,25.00
2018-06-03T02:49:43.316Z,26.50
2018-06-03T02:50:17.440Z,26.48
2018-06-03T02:50:51.016Z,25.97
2018-06-03T02:51:24.331Z,26.00
2018-06-03T02:51:58.495Z,27.55
2018-06-03T02:52:32.062Z,25.52
2018-06-03T02:53:05.714Z,28.17
2018-06-03T02:53:39.828Z,27.75
2018-06-03T02:54:13.731Z,26.75
2018-06-03T02:54:47.399Z,26.50
2018-06-03T02:55:20.978Z,28.45
2018-06-03T02:55:54.938Z,28.07
2018-06-03T02:56:28.548Z,28.43
2018-06-03T02:57:02.129Z,27.77
2018-06-03T02:57:35.649Z,25.45
2018-06-03T02:58:09.284Z,26.70
2018-06-03T02:58:42.885Z,27.85
2018-06-03T02:59:16.550Z,25.80
2018-06-03T02:59:50.144Z,26.40
2018-06-03T03:00:23.920Z,27.15
2018-06-03T03:00:58.619Z,26.93
2018-06-03T03:01:32.183Z,26.55
2018-06-03T03:02:05.768Z,27.42
2018-06-03T03:02:39.352Z,27.30
2018-06-03T03:03:13.705Z,27.25
2018-06-03T03:03:47.268Z,26.77
2018-06-03T03:04:22.546Z,26.65
2018-06-03T03:04:56.128Z,26.90
2018-06-03T03:05:29.695Z,26.42
2018-06-03T03:06:03.319Z,27.20
2018-06-03T03:06:37.509Z,27.60
2018-06-03T03:07:11.285Z,26.50
2018-06-03T03:07:44.807Z,27.30
2018-06-03T03:08:18.401Z,27.13
2018-06-03T03:08:51.973Z,27.50
2018-06-03T03:09:25.537Z,28.05
2018-06-03T03:09:59.937Z,27.52
2018-06-03T03:10:34.107Z,27.83
2018-06-03T03:11:07.735Z,26.77
2018-06-03T03:11:41.291Z,26.50
2018-06-03T03:12:14.817Z,27.07
2018-06-03T03:12:49.324Z,26.23
2018-06-03T03:13:22.871Z,27.82
2018-06-03T03:13:56.415Z,25.55
2018-06-03T03:14:30.358Z,26.57
2018-06-03T03:15:04.021Z,26.68
2018-06-03T03:15:37.650Z,26.80
2018-06-03T03:16:11.796Z,27.17
2018-06-03T03:16:45.383Z,26.55
2018-06-03T03:17:18.883Z,26.25
2018-06-03T03:17:52.444Z,26.68
2018-06-03T03:18:26.051Z,27.58
2018-06-03T03:18:59.643Z,26.30
2018-06-03T03:19:33.296Z,27.22
2018-06-03T03:20:06.851Z,27.45
2018-06-03T03:20:40.421Z,27.17
2018-06-03T03:21:13.999Z,27.48
2018-06-03T03:21:47.528Z,27.40
2018-06-03T03:22:22.207Z,27.10
2018-06-03T03:22:55.804Z,27.70
2018-06-03T03:23:29.373Z,26.82
2018-06-03T03:24:03.037Z,27.05
2018-06-03T03:24:36.594Z,27.83
2018-06-03T03:25:10.180Z,28.52
2018-06-03T03:25:43.746Z,28.05
2018-06-03T03:26:17.337Z,27.48
2018-06-03T03:26:50.908Z,27.90
2018-06-03T03:27:25.195Z,28.60
2018-06-03T03:27:59.530Z,27.27
2018-06-03T03:28:33.752Z,29.57
2018-06-03T03:29:07.385Z,29.55
2018-06-03T03:29:41.733Z,28.32
2018-06-03T03:30:15.296Z,28.05
2018-06-03T03:30:48.937Z,28.70
2018-06-03T03:31:22.532Z,30.10
2018-06-03T03:31:56.970Z,31.25
2018-06-03T03:32:30.586Z,30.97
2018-06-03T03:33:04.084Z,30.75
2018-06-03T03:33:37.655Z,31.52
2018-06-03T03:34:11.239Z,30.68
2018-06-03T03:34:44.773Z,31.85
2018-06-03T03:35:18.321Z,30.60
2018-06-03T03:35:51.927Z,29.48
2018-06-03T03:36:25.468Z,30.45
2018-06-03T03:36:59.166Z,30.57
2018-06-03T03:37:32.697Z,29.52
2018-06-03T03:38:06.756Z,31.95
2018-06-03T03:38:40.852Z,30.47
2018-06-03T03:39:15.650Z,30.60
2018-06-03T03:39:49.257Z,29.40
2018-06-03T03:40:22.790Z,29.00
2018-06-03T03:40:56.371Z,30.68
2018-06-03T03:41:29.911Z,30.92
2018-06-03T03:42:03.502Z,31.15
2018-06-03T03:42:38.367Z,31.70
2018-06-03T03:43:11.984Z,30.80
2018-06-03T03:43:46.197Z,30.02
2018-06-03T03:44:19.760Z,30.10
2018-06-03T03:44:52.969Z,31.42
2018-06-03T03:45:26.616Z,31.00
2018-06-03T03:46:00.215Z,30.85
2018-06-03T03:46:33.416Z,30.17
2018-06-03T03:47:07.048Z,31.23
2018-06-03T03:47:40.556Z,30.50
2018-06-03T03:48:14.210Z,30.45
2018-06-03T03:48:47.820Z,29.37
2018-06-03T03:49:22.129Z,30.23
2018-06-03T03:49:56.289Z,30.05
2018-06-03T03:50:29.958Z,31.03
2018-06-03T03:51:03.534Z,31.70
2018-06-03T03:51:37.123Z,31.17
2018-06-03T03:52:10.705Z,31.20
2018-06-03T03:52:43.927Z,31.15
2018-06-03T03:53:17.411Z,31.00
2018-06-03T03:53:51.024Z,31.25
2018-06-03T03:54:24.580Z,30.60
2018-06-03T03:54:58.166Z,29.87
2018-06-03T03:55:32.425Z,31.02
2018-06-03T03:56:06.046Z,32.20
2018-06-03T03:56:41.314Z,31.13
2018-06-03T03:57:14.916Z,31.33
2018-06-03T03:57:48.430Z,32.20
2018-06-03T03:58:22.072Z,32.03
2018-06-03T03:58:55.605Z,33.60
2018-06-03T03:59:28.802Z,31.77
2018-06-03T04:00:02.403Z,31.33
2018-06-03T04:00:36.546Z,32.33
2018-06-03T04:01:10.112Z,32.65
2018-06-03T04:01:43.682Z,33.28
2018-06-03T04:02:17.238Z,31.93
2018-06-03T04:02:51.263Z,33.20
2018-06-03T04:03:24.823Z,31.90
2018-06-03T04:03:58.595Z,31.30
2018-06-03T04:04:32.190Z,31.23
2018-06-03T04:05:05.877Z,30.70
2018-06-03T04:05:39.403Z,31.77
2018-06-03T04:06:13.024Z,33.78
2018-06-03T04:06:46.637Z,33.80
2018-06-03T04:07:20.159Z,33.42
2018-06-03T04:07:53.789Z,32.75
2018-06-03T04:08:27.381Z,34.20
2018-06-03T04:09:01.522Z,33.90
2018-06-03T04:09:35.051Z,34.00
2018-06-03T04:10:08.628Z,34.83
2018-06-03T04:10:42.276Z,35.10
2018-06-03T04:11:15.856Z,36.95
2018-06-03T04:11:49.430Z,37.90
2018-06-03T04:12:23.416Z,37.40
2018-06-03T04:12:57.673Z,37.63
2018-06-03T04:13:31.949Z,38.90
2018-06-03T04:14:05.593Z,38.10
2018-06-03T04:14:39.185Z,37.30
2018-06-03T04:15:12.769Z,37.80
2018-06-03T04:15:46.844Z,36.15
2018-06-03T04:16:20.394Z,34.43
2018-06-03T04:16:53.960Z,38.88
2018-06-03T04:17:27.546Z,35.60
2018-06-03T04:18:01.805Z,34.43
2018-06-03T04:18:35.374Z,34.43
2018-06-03T04:19:08.883Z,34.38
2018-06-03T04:19:42.431Z,34.90
2018-06-03T04:20:16.032Z,35.00
2018-06-03T04:20:49.579Z,32.73
2018-06-03T04:21:23.088Z,32.53
2018-06-03T04:21:57.643Z,32.95
2018-06-03T04:22:31.223Z,33.17
2018-06-03T04:23:04.841Z,32.50
2018-06-03T04:23:38.400Z,32.10
2018-06-03T04:24:12.558Z,32.05
2018-06-03T04:24:46.059Z,33.33
2018-06-03T04:25:19.644Z,31.52
2018-06-03T04:25:52.859Z,32.30
2018-06-03T04:26:26.499Z,32.08
2018-06-03T04:27:00.027Z,30.45
2018-06-03T04:27:34.208Z,31.42
2018-06-03T04:28:07.837Z,32.90
2018-06-03T04:28:42.008Z,31.95
2018-06-03T04:29:16.181Z,31.97
2018-06-03T04:29:49.763Z,31.12
2018-06-03T04:30:23.364Z,31.87
2018-06-03T04:30:56.919Z,32.42
2018-06-03T04:31:30.468Z,33.58
2018-06-03T04:32:03.980Z,32.80
2018-06-03T04:32:37.463Z,33.50
2018-06-03T04:33:10.988Z,32.17
2018-06-03T04:33:45.644Z,32.45
2018-06-03T04:34:19.274Z,33.50
2018-06-03T04:34:52.898Z,32.63
2018-06-03T04:35:26.733Z,32.55
2018-06-03T04:36:00.409Z,32.05
2018-06-03T04:36:34.020Z,32.90
2018-06-03T04:37:07.546Z,34.73
2018-06-03T04:37:41.129Z,34.25
2018-06-03T04:38:14.648Z,38.85
2018-06-03T04:38:48.179Z,33.53
2018-06-03T04:39:21.772Z,39.73
2018-06-03T04:39:55.339Z,34.38
2018-06-03T04:40:29.288Z,33.47
2018-06-03T04:41:02.848Z,32.83
2018-06-03T04:41:36.405Z,32.28
2018-06-03T04:42:10.018Z,32.90
2018-06-03T04:42:43.645Z,35.90
2018-06-03T04:43:17.212Z,37.98
2018-06-03T04:43:51.152Z,40.98
2018-06-03T04:44:25.893Z,39.20
2018-06-03T04:44:59.477Z,33.40
2018-06-03T04:45:33.427Z,37.10
2018-06-03T04:46:06.996Z,32.15
2018-06-03T04:46:40.639Z,34.15
2018-06-03T04:47:15.038Z,32.45
2018-06-03T04:47:49.528Z,35.78
2018-06-03T04:48:23.118Z,32.25
2018-06-03T04:48:56.596Z,33.65
2018-06-03T04:49:30.121Z,34.33
2018-06-03T04:50:03.687Z,33.98
2018-06-03T04:50:37.933Z,36.73
2018-06-03T04:51:12.084Z,36.65
2018-06-03T04:51:46.214Z,39.90
2018-06-03T04:52:20.731Z,39.10
2018-06-03T04:52:54.296Z,37.98
2018-06-03T04:53:27.807Z,38.33
2018-06-03T04:54:01.405Z,37.35
2018-06-03T04:54:35.496Z,36.20
2018-06-03T04:55:09.103Z,37.00
2018-06-03T04:55:42.637Z,35.90
2018-06-03T04:56:16.876Z,37.83
2018-06-03T04:56:50.395Z,36.42
2018-06-03T04:57:25.108Z,35.00
2018-06-03T04:57:58.632Z,36.00
2018-06-03T04:58:32.186Z,36.43
2018-06-03T04:59:05.809Z,35.45
2018-06-03T04:59:39.314Z,36.73
2018-06-03T05:00:12.933Z,35.63
2018-06-03T05:00:46.497Z,35.58
2018-06-03T05:01:21.647Z,35.65
2018-06-03T05:01:55.244Z,35.35
2018-06-03T05:02:28.804Z,39.00
2018-06-03T05:03:03.033Z,34.73
2018-06-03T05:03:36.610Z,34.55
2018-06-03T05:04:09.907Z,34.80
2018-06-03T05:04:43.548Z,36.20
2018-06-03T05:05:17.128Z,36.63
2018-06-03T05:05:50.800Z,36.28
2018-06-03T05:06:24.377Z,34.63
2018-06-03T05:06:57.989Z,35.38
2018-06-03T05:07:31.525Z,35.80
2018-06-03T05:08:05.467Z,38.85
2018-06-03T05:08:39.235Z,35.63
2018-06-03T05:09:12.796Z,34.75
2018-06-03T05:09:46.334Z,35.13
2018-06-03T05:10:19.876Z,35.73
2018-06-03T05:10:53.669Z,35.55
2018-06-03T05:11:27.320Z,35.08
2018-06-03T05:12:01.444Z,36.45
2018-06-03T05:12:35.940Z,35.80
2018-06-03T05:13:09.525Z,36.53
2018-06-03T05:13:43.569Z,35.70
2018-06-03T05:14:17.381Z,36.45
2018-06-03T05:14:50.960Z,35.70
2018-06-03T05:15:25.262Z,37.80
2018-06-03T05:15:59.688Z,36.68
2018-06-03T05:16:34.484Z,37.03
2018-06-03T05:17:08.035Z,37.05
2018-06-03T05:17:41.582Z,36.53
2018-06-03T05:18:15.212Z,37.85
2018-06-03T05:18:49.471Z,37.23
2018-06-03T05:19:22.998Z,37.13
2018-06-03T05:19:56.586Z,36.38
2018-06-03T05:20:29.776Z,37.33
2018-06-03T05:21:03.383Z,36.40
2018-06-03T05:21:36.987Z,35.20
2018-06-03T05:22:10.559Z,36.20
2018-06-03T05:22:44.119Z,36.10
2018-06-03T05:23:17.716Z,37.00
2018-06-03T05:23:51.340Z,43.52
2018-06-03T05:24:24.913Z,35.90
2018-06-03T05:24:58.502Z,35.80
2018-06-03T05:25:32.087Z,44.05
2018-06-03T05:26:05.682Z,40.00
2018-06-03T05:26:39.222Z,35.20
2018-06-03T05:27:12.787Z,34.78
2018-06-03T05:27:46.402Z,38.58
2018-06-03T05:28:19.970Z,36.63
2018-06-03T05:28:53.532Z,37.00
2018-06-03T05:29:27.275Z,36.85
2018-06-03T05:30:00.829Z,36.17
2018-06-03T05:30:35.064Z,37.33
2018-06-03T05:31:09.225Z,40.55
2018-06-03T05:31:43.324Z,40.28
2018-06-03T05:32:16.913Z,37.42
2018-06-03T05:32:51.886Z,38.10
2018-06-03T05:33:26.203Z,40.12
2018-06-03T05:33:59.824Z,37.38
2018-06-03T05:34:33.395Z,36.87
2018-06-03T05:35:07.053Z,37.73
2018-06-03T05:35:40.588Z,37.10
2018-06-03T05:36:15.447Z,36.77
2018-06-03T05:36:49.900Z,37.60
2018-06-03T05:37:23.521Z,39.85
2018-06-03T05:37:57.110Z,38.55
2018-06-03T05:38:30.663Z,37.90
2018-06-03T05:39:06.079Z,36.45
2018-06-03T05:39:39.618Z,37.75
2018-06-03T05:40:13.161Z,37.48
2018-06-03T05:40:46.750Z,38.83
2018-06-03T05:41:20.912Z,35.78
2018-06-03T05:41:55.487Z,41.42
2018-06-03T05:42:30.014Z,40.70
2018-06-03T05:43:03.545Z,36.58
2018-06-03T05:43:37.356Z,34.88
2018-06-03T05:44:10.936Z,36.40
2018-06-03T05:44:44.489Z,36.38
2018-06-03T05:45:18.001Z,36.00
2018-06-03T05:45:52.113Z,39.15
2018-06-03T05:46:25.660Z,36.40
2018-06-03T05:46:59.220Z,35.78
2018-06-03T05:47:32.810Z,36.00
2018-06-03T05:48:06.333Z,37.73
2018-06-03T05:48:40.497Z,34.97
2018-06-03T05:49:14.101Z,35.52
2018-06-03T05:49:47.658Z,37.05
2018-06-03T05:50:23.529Z,37.28
2018-06-03T05:50:57.737Z,36.30
2018-06-03T05:51:31.292Z,37.50
2018-06-03T05:52:04.850Z,39.30
2018-06-03T05:52:38.400Z,37.05
2018-06-03T05:53:11.973Z,37.63
2018-06-03T05:53:45.613Z,37.53
2018-06-03T05:54:19.556Z,37.90
2018-06-03T05:54:53.201Z,36.48
2018-06-03T05:55:27.008Z,36.30
2018-06-03T05:56:00.806Z,37.45
2018-06-03T05:56:34.399Z,37.05
2018-06-03T05:57:08.004Z,37.17
2018-06-03T05:57:41.613Z,38.10
2018-06-03T05:58:15.281Z,40.35
2018-06-03T05:58:48.902Z,48.38
2018-06-03T05:59:23.252Z,52.13
2018-06-03T05:59:57.129Z,45.00
2018-06-03T06:00:31.259Z,39.60
2018-06-03T06:01:04.891Z,39.73
2018-06-03T06:01:38.968Z,38.98
2018-06-03T06:02:12.852Z,48.83
2018-06-03T06:02:46.470Z,45.00
2018-06-03T06:03:20.108Z,52.38
2018-06-03T06:03:53.711Z,47.25
2018-06-03T06:04:27.243Z,44.45
2018-06-03T06:05:00.841Z,40.20
2018-06-03T06:05:34.424Z,40.00
2018-06-03T06:06:07.985Z,39.92
2018-06-03T06:06:41.211Z,45.00
2018-06-03T06:07:15.409Z,41.23
2018-06-03T06:07:49.088Z,38.45
2018-06-03T06:08:22.664Z,53.05
2018-06-03T06:08:56.189Z,52.67
2018-06-03T06:09:29.721Z,45.30
2018-06-03T06:10:03.324Z,51.60
2018-06-03T06:10:36.968Z,44.38
2018-06-03T06:11:10.519Z,42.35
2018-06-03T06:11:44.159Z,41.10
2018-06-03T06:12:18.330Z,43.48
2018-06-03T06:12:51.876Z,42.62
2018-06-03T06:13:25.444Z,52.03
2018-06-03T06:13:59.005Z,44.20
2018-06-03T06:14:33.223Z,42.07
2018-06-03T06:15:06.863Z,53.40
2018-06-03T06:15:40.440Z,49.27
2018-06-03T06:16:14.816Z,47.55
2018-06-03T06:16:49.392Z,45.23
2018-06-03T06:17:23.008Z,47.00
2018-06-03T06:17:56.560Z,43.63
2018-06-03T06:18:30.135Z,46.17
2018-06-03T06:19:03.844Z,46.08
2018-06-03T06:19:37.460Z,50.30
2018-06-03T06:20:10.713Z,45.43
2018-06-03T06:20:44.387Z,43.48
2018-06-03T06:21:17.951Z,45.40
2018-06-03T06:21:52.123Z,45.00
2018-06-03T06:22:25.648Z,44.23
2018-06-03T06:22:59.327Z,47.20
2018-06-03T06:23:32.964Z,43.20
2018-06-03T06:24:06.585Z,42.33
2018-06-03T06:24:40.153Z,46.23
2018-06-03T06:25:13.740Z,44.08
2018-06-03T06:25:47.304Z,44.90
2018-06-03T06:26:22.566Z,42.03
2018-06-03T06:26:56.075Z,42.58
2018-06-03T06:27:29.648Z,42.30
2018-06-03T06:28:04.506Z,44.63
2018-06-03T06:28:38.092Z,43.23
2018-06-03T06:29:11.640Z,43.35
2018-06-03T06:29:47.200Z,41.88
2018-06-03T06:30:21.573Z,41.37
2018-06-03T06:30:55.123Z,40.45
2018-06-03T06:31:28.652Z,39.35
2018-06-03T06:32:02.217Z,41.65
2018-06-03T06:32:35.880Z,44.20
2018-06-03T06:33:09.450Z,43.63
2018-06-03T06:33:43.730Z,42.13
2018-06-03T06:34:17.566Z,43.08
2018-06-03T06:34:52.222Z,43.55
2018-06-03T06:35:25.755Z,46.28
2018-06-03T06:35:59.309Z,48.55
2018-06-03T06:36:33.512Z,42.97
2018-06-03T06:37:07.136Z,43.50
2018-06-03T06:37:40.690Z,44.25
2018-06-03T06:38:14.292Z,42.88
2018-06-03T06:38:47.895Z,45.78
2018-06-03T06:39:21.481Z,42.85
2018-06-03T06:39:56.440Z,42.05
2018-06-03T06:40:29.691Z,41.93
2018-06-03T06:41:03.242Z,42.62
2018-06-03T06:41:37.567Z,42.80
2018-06-03T06:42:11.156Z,44.08
2018-06-03T06:42:44.690Z,43.95
2018-06-03T06:43:18.237Z,41.42
2018-06-03T06:43:51.816Z,42.30
2018-06-03T06:44:25.380Z,43.75
2018-06-03T06:44:59.745Z,43.50
2018-06-03T06:45:33.336Z,44.65
2018-06-03T06:46:06.909Z,45.12
2018-06-03T06:46:40.524Z,44.07
2018-06-03T06:47:14.744Z,46.45
2018-06-03T06:47:48.328Z,43.83
2018-06-03T06:48:22.385Z,43.18
2018-06-03T06:48:55.960Z,41.92
2018-06-03T06:49:29.516Z,42.25
2018-06-03T06:50:03.130Z,42.03
2018-06-03T06:50:36.683Z,46.07
2018-06-03T06:51:10.315Z,43.68
2018-06-03T06:51:44.025Z,42.40
2018-06-03T06:52:17.557Z,43.33
2018-06-03T06:52:51.097Z,44.70
2018-06-03T06:53:24.639Z,43.65
2018-06-03T06:53:58.220Z,44.63
2018-06-03T06:54:31.819Z,43.13
2018-06-03T06:55:05.451Z,45.90
2018-06-03T06:55:38.643Z,45.25
2018-06-03T06:56:11.876Z,43.92
2018-06-03T06:56:45.458Z,41.92
2018-06-03T06:57:19.052Z,41.83
2018-06-03T06:57:52.576Z,41.18
2018-06-03T06:58:26.172Z,41.73
2018-06-03T06:58:59.731Z,41.30
2018-06-03T06:59:33.878Z,40.38
2018-06-03T07:00:07.545Z,41.73
2018-06-03T07:00:41.079Z,41.17
2018-06-03T07:01:15.208Z,40.28
2018-06-03T07:01:48.788Z,41.33
2018-06-03T07:02:22.440Z,41.33
2018-06-03T07:02:55.982Z,41.90
2018-06-03T07:03:29.562Z,40.58
2018-06-03T07:04:03.168Z,41.60
2018-06-03T07:04:36.756Z,42.23
2018-06-03T07:05:10.314Z,41.37
2018-06-03T07:05:43.861Z,40.78
2018-06-03T07:06:17.389Z,41.13
2018-06-03T07:06:51.237Z,42.60
2018-06-03T07:07:24.840Z,41.77
2018-06-03T07:07:58.524Z,42.03
2018-06-03T07:08:33.063Z,41.43
2018-06-03T07:09:07.251Z,39.90
2018-06-03T07:09:41.420Z,39.55
2018-06-03T07:10:14.964Z,40.67
2018-06-03T07:10:48.553Z,40.78
2018-06-03T07:11:22.163Z,40.50
2018-06-03T07:11:56.459Z,40.12
2018-06-03T07:12:30.018Z,38.57
2018-06-03T07:13:03.642Z,40.90
2018-06-03T07:13:37.215Z,38.95
2018-06-03T07:14:10.773Z,38.33
2018-06-03T07:14:44.358Z,38.65
2018-06-03T07:15:17.904Z,38.70
2018-06-03T07:15:51.417Z,40.12